createdAt,value
2022-08-18T00:00:02.149Z,56.13
2022-08-18T00:03:13.732Z,56.38
2022-08-18T00:05:57.155Z,56.47
2022-08-18T00:08:30.347Z,56.68
2022-08-18T00:11:01.557Z,56.95
2022-08-18T00:13:34.093Z,56.90
2022-08-18T00:16:04.906Z,57.32
2022-08-18T00:18:36.830Z,57.39
2022-08-18T00:21:07.925Z,57.77
2022-08-18T00:23:36.646Z,58.11
2022-08-18T00:26:05.432Z,58.25
2022-08-18T00:28:34.734Z,58.18
2022-08-18T00:31:05.771Z,58.41
2022-08-18T00:33:33.748Z,58.83
2022-08-18T00:36:01.588Z,58.77
2022-08-18T00:38:29.927Z,58.85
2022-08-18T00:40:58.084Z,59.05
2022-08-18T00:43:42.256Z,59.31
2022-08-18T00:46:15.770Z,59.16
2022-08-18T00:48:48.575Z,59.32
2022-08-18T00:51:34.408Z,59.47
2022-08-18T00:54:09.680Z,59.55
2022-08-18T00:56:49.961Z,59.52
2022-08-18T00:59:24.186Z,59.45
2022-08-18T01:01:55.871Z,59.53
2022-08-18T01:04:39.115Z,59.58
2022-08-18T01:07:21.507Z,59.49
2022-08-18T01:09:51.755Z,59.61
2022-08-18T01:12:44.629Z,59.81
2022-08-18T01:15:13.858Z,59.71
2022-08-18T01:18:22.369Z,59.85
2022-08-18T01:21:24.664Z,59.72
2022-08-18T01:23:54.549Z,60.11
2022-08-18T01:26:24.393Z,60.23
2022-08-18T01:28:53.292Z,60.54
2022-08-18T01:31:54.406Z,60.60
2022-08-18T01:34:27.791Z,60.70
2022-08-18T01:36:57.647Z,60.84
2022-08-18T01:40:59.577Z,61.04
2022-08-18T01:42:18.239Z,61.35
2022-08-18T01:44:48.485Z,61.40
2022-08-18T01:47:20.212Z,61.65
2022-08-18T01:49:48.236Z,61.55
2022-08-18T01:52:22.090Z,61.78
2022-08-18T01:54:51.718Z,61.88
2022-08-18T01:57:21.566Z,61.95
2022-08-18T01:59:49.947Z,61.98
2022-08-18T02:02:24.564Z,62.06
2022-08-18T02:05:01.253Z,62.34
2022-08-18T02:07:36.494Z,62.31
2022-08-18T02:10:11.893Z,62.62
2022-08-18T02:12:41.584Z,62.72
2022-08-18T02:15:10.971Z,62.65
2022-08-18T02:17:40.766Z,62.77
2022-08-18T02:20:13.972Z,62.99
2022-08-18T02:22:43.020Z,63.15
2022-08-18T02:25:12.241Z,63.03
2022-08-18T02:27:40.887Z,63.00
2022-08-18T02:30:12.140Z,63.14
2022-08-18T02:32:39.997Z,63.17
2022-08-18T02:35:11.708Z,63.14
2022-08-18T02:37:47.891Z,63.17
2022-08-18T02:40:21.958Z,63.34
2022-08-18T02:42:52.934Z,63.26
2022-08-18T02:45:32.075Z,63.45
2022-08-18T02:48:00.493Z,63.45
2022-08-18T02:50:29.079Z,63.50
2022-08-18T02:52:56.914Z,63.91
2022-08-18T02:55:26.925Z,63.98
2022-08-18T02:57:54.805Z,64.09
2022-08-18T03:00:24.419Z,64.14
2022-08-18T03:02:53.519Z,64.23
2022-08-18T03:05:21.244Z,64.32
2022-08-18T03:07:50.459Z,64.64
2022-08-18T03:10:32.826Z,64.78
2022-08-18T03:13:02.603Z,65.04
2022-08-18T03:15:32.448Z,65.28
2022-08-18T03:18:01.232Z,65.45
2022-08-18T03:20:30.774Z,65.52
2022-08-18T03:23:09.490Z,65.77
2022-08-18T03:25:50.208Z,65.99
2022-08-18T03:28:18.702Z,65.90
2022-08-18T03:30:47.437Z,66.04
2022-08-18T03:33:15.244Z,66.09
2022-08-18T03:35:44.561Z,66.30
2022-08-18T03:38:14.723Z,66.51
2022-08-18T03:40:43.579Z,66.51
2022-08-18T03:43:49.986Z,66.50
2022-08-18T03:46:06.066Z,66.57
2022-08-18T03:48:33.869Z,66.37
2022-08-18T03:51:20.127Z,66.51
2022-08-18T03:53:49.396Z,66.40
2022-08-18T03:56:23.255Z,66.35
2022-08-18T03:58:55.886Z,66.53
2022-08-18T04:01:28.940Z,66.63
2022-08-18T04:04:02.225Z,66.63
2022-08-18T04:06:36.301Z,66.70
2022-08-18T04:09:06.870Z,66.90
2022-08-18T04:11:37.696Z,66.83
2022-08-18T04:14:06.888Z,66.90
2022-08-18T04:16:38.483Z,66.83
2022-08-18T04:19:09.361Z,66.80
2022-08-18T04:21:40.985Z,66.81
2022-08-18T04:24:10.984Z,66.68
2022-08-18T04:26:44.295Z,66.58
2022-08-18T04:29:18.216Z,66.64
2022-08-18T04:31:47.364Z,66.50
2022-08-18T04:34:15.801Z,66.56
2022-08-18T04:36:43.822Z,66.45
2022-08-18T04:39:14.111Z,66.50
2022-08-18T04:41:43.919Z,66.45
2022-08-18T04:44:13.014Z,66.36
2022-08-18T04:46:48.738Z,66.25
2022-08-18T04:49:19.698Z,66.26
2022-08-18T04:52:26.719Z,66.24
2022-08-18T04:54:58.217Z,66.27
2022-08-18T04:57:26.983Z,66.01
2022-08-18T04:59:55.142Z,65.83
2022-08-18T05:02:24.256Z,65.74
2022-08-18T05:04:55.266Z,65.62
2022-08-18T05:07:25.980Z,65.50
2022-08-18T05:09:57.047Z,65.23
2022-08-18T05:12:26.245Z,65.14
2022-08-18T05:14:57.308Z,65.04
2022-08-18T05:17:30.393Z,64.79
2022-08-18T05:20:01.069Z,64.73
2022-08-18T05:22:31.881Z,64.51
2022-08-18T05:27:48.887Z,63.87
2022-08-18T05:30:17.786Z,63.78
2022-08-18T05:32:49.936Z,63.64
2022-08-18T05:35:33.906Z,63.30
2022-08-18T05:38:39.732Z,63.13
2022-08-18T05:41:15.730Z,63.11
2022-08-18T05:43:51.129Z,62.96
2022-08-18T05:46:32.615Z,62.84
2022-08-18T05:49:00.567Z,62.58
2022-08-18T05:51:38.521Z,62.45
2022-08-18T05:54:26.696Z,62.30
2022-08-18T05:56:59.592Z,62.03
2022-08-18T05:59:34.221Z,61.89
2022-08-18T06:02:29.123Z,61.59
2022-08-18T06:05:01.536Z,61.36
2022-08-18T06:07:53.348Z,61.35
2022-08-18T06:10:22.937Z,61.25
2022-08-18T06:12:54.643Z,61.05
2022-08-18T06:15:31.127Z,60.78
2022-08-18T06:18:04.670Z,60.61
2022-08-18T06:21:02.547Z,60.64
2022-08-18T06:23:38.833Z,60.67
2022-08-18T06:26:41.491Z,60.62
2022-08-18T06:29:57.558Z,60.29
2022-08-18T06:32:34.532Z,60.53
2022-08-18T06:35:09.360Z,60.51
2022-08-18T06:38:08.331Z,60.59
2022-08-18T06:40:42.193Z,60.67
2022-08-18T06:43:17.424Z,60.17
2022-08-18T06:45:52.429Z,60.30
2022-08-18T06:48:45.778Z,60.28
2022-08-18T06:51:20.049Z,60.26
2022-08-18T06:54:01.914Z,60.31
2022-08-18T06:56:42.860Z,60.15
2022-08-18T06:59:38.772Z,59.98
2022-08-18T07:02:27.248Z,59.91
2022-08-18T07:05:04.641Z,59.81
2022-08-18T07:07:41.765Z,59.55
2022-08-18T07:10:13.608Z,59.40
2022-08-18T07:12:42.148Z,59.16
2022-08-18T07:15:12.747Z,58.98
2022-08-18T07:17:43.575Z,59.01
2022-08-18T07:20:21.190Z,58.87
2022-08-18T07:23:00.123Z,58.86
2022-08-18T07:25:44.613Z,58.73
2022-08-18T07:28:33.188Z,58.52
2022-08-18T07:31:26.865Z,58.34
2022-08-18T07:34:00.755Z,57.92
2022-08-18T07:36:36.554Z,57.90
2022-08-18T07:39:36.304Z,57.81
2022-08-18T07:42:31.954Z,57.65
2022-08-18T07:45:26.190Z,57.64
2022-08-18T07:48:20.814Z,57.28
2022-08-18T07:51:09.746Z,57.21
2022-08-18T07:54:01.463Z,57.08
2022-08-18T07:56:47.531Z,56.90
2022-08-18T07:59:35.899Z,56.91
2022-08-18T08:02:03.671Z,56.68
2022-08-18T08:04:53.668Z,56.37
2022-08-18T08:07:27.023Z,56.50
2022-08-18T08:10:26.184Z,56.32
2022-08-18T08:13:51.718Z,56.00
2022-08-18T08:16:41.225Z,55.77
2022-08-18T08:19:18.288Z,55.71
2022-08-18T08:21:58.237Z,55.26
2022-08-18T08:24:49.918Z,55.05
2022-08-18T08:27:28.459Z,54.82
2022-08-18T08:30:37.942Z,54.67
2022-08-18T08:33:32.137Z,54.16
2022-08-18T08:36:10.466Z,54.16
2022-08-18T08:38:46.500Z,54.01
2022-08-18T08:41:22.840Z,53.37
2022-08-18T08:44:06.709Z,52.91
2022-08-18T08:46:46.302Z,52.69
2022-08-18T08:49:29.820Z,52.50
2022-08-18T08:52:19.223Z,52.32
2022-08-18T08:55:17.260Z,51.84
2022-08-18T08:57:52.057Z,51.22
2022-08-18T09:03:34.574Z,50.74
2022-08-18T09:06:08.929Z,50.21
2022-08-18T09:09:00.872Z,49.51
2022-08-18T09:11:57.882Z,49.19
2022-08-18T09:15:03.332Z,49.16
2022-08-18T09:17:57.051Z,48.90
2022-08-18T09:20:49.535Z,48.30
2022-08-18T09:23:21.875Z,48.24
2022-08-18T09:25:56.764Z,48.05
2022-08-18T09:28:29.020Z,47.52
2022-08-18T09:31:07.227Z,47.11
2022-08-18T09:33:45.050Z,46.63
2022-08-18T09:36:20.576Z,46.56
2022-08-18T09:39:53.801Z,46.39
2022-08-18T09:42:49.935Z,46.10
2022-08-18T09:48:30.385Z,45.00
2022-08-18T09:51:18.382Z,44.53
2022-08-18T09:53:47.118Z,43.74
2022-08-18T09:56:19.699Z,43.60
2022-08-18T09:59:10.845Z,43.21
2022-08-18T10:04:49.020Z,42.71
2022-08-18T10:07:41.989Z,42.63
2022-08-18T10:11:00.826Z,42.45
2022-08-18T10:13:49.529Z,41.76
2022-08-18T10:17:13.200Z,41.69
2022-08-18T10:19:57.470Z,41.59
2022-08-18T10:22:56.510Z,41.70
2022-08-18T10:25:38.147Z,41.05
2022-08-18T10:28:17.341Z,40.75
2022-08-18T10:31:05.862Z,40.27
2022-08-18T10:33:56.303Z,40.26
2022-08-18T10:36:48.232Z,40.10
2022-08-18T10:39:20.621Z,39.85
2022-08-18T10:42:14.982Z,39.25
2022-08-18T10:44:46.757Z,38.94
2022-08-18T10:47:33.481Z,38.84
2022-08-18T10:50:22.629Z,38.59
2022-08-18T10:53:24.278Z,38.11
2022-08-18T10:55:56.850Z,37.37
2022-08-18T10:58:51.689Z,37.37
2022-08-18T11:01:49.996Z,36.85
2022-08-18T11:04:58.955Z,36.47
2022-08-18T11:07:30.912Z,36.09
2022-08-18T11:10:31.917Z,35.80
2022-08-18T11:13:13.582Z,35.27
2022-08-18T11:16:00.592Z,35.26
2022-08-18T11:18:46.096Z,35.20
2022-08-18T11:21:42.240Z,34.62
2022-08-18T11:24:24.796Z,34.55
2022-08-18T11:27:09.847Z,34.27
2022-08-18T11:29:46.079Z,34.38
2022-08-18T11:32:29.619Z,34.35
2022-08-18T11:35:06.615Z,33.83
2022-08-18T11:37:53.165Z,33.52
2022-08-18T11:41:08.684Z,33.43
2022-08-18T11:43:24.027Z,32.79
2022-08-18T11:45:57.162Z,32.46
2022-08-18T11:48:36.042Z,32.26
2022-08-18T11:51:27.517Z,32.36
2022-08-18T11:54:19.871Z,32.36
2022-08-18T11:56:48.048Z,32.22
2022-08-18T11:59:52.674Z,32.24
2022-08-18T12:02:21.901Z,32.52
2022-08-18T12:04:53.306Z,32.50
2022-08-18T12:07:34.811Z,32.84
2022-08-18T12:10:28.406Z,32.22
2022-08-18T12:13:00.677Z,31.87
2022-08-18T12:15:43.920Z,31.65
2022-08-18T12:18:26.022Z,31.83
2022-08-18T12:21:08.223Z,31.41
2022-08-18T12:26:38.566Z,31.14
2022-08-18T12:29:08.717Z,30.73
2022-08-18T12:31:42.548Z,30.51
2022-08-18T12:34:26.325Z,30.43
2022-08-18T12:36:58.249Z,30.27
2022-08-18T12:39:26.146Z,30.32
2022-08-18T12:41:54.428Z,29.94
2022-08-18T12:44:23.288Z,29.74
2022-08-18T12:46:56.142Z,29.46
2022-08-18T12:49:25.768Z,29.54
2022-08-18T12:51:55.811Z,29.48
2022-08-18T12:54:25.221Z,29.11
2022-08-18T12:56:56.097Z,28.80
2022-08-18T12:59:25.260Z,28.19
2022-08-18T13:01:58.633Z,27.83
2022-08-18T13:04:28.947Z,27.53
2022-08-18T13:07:01.923Z,27.51
2022-08-18T13:09:53.340Z,27.26
2022-08-18T13:12:26.157Z,27.42
2022-08-18T13:14:58.314Z,26.88
2022-08-18T13:17:33.384Z,26.31
2022-08-18T13:20:09.067Z,26.10
2022-08-18T13:22:40.393Z,25.71
2022-08-18T13:25:12.361Z,25.63
2022-08-18T13:27:43.639Z,25.80
2022-08-18T13:30:31.321Z,25.90
2022-08-18T13:33:05.735Z,25.81
2022-08-18T13:35:52.408Z,25.29
2022-08-18T13:38:26.151Z,25.17
2022-08-18T13:40:59.790Z,24.76
2022-08-18T13:43:32.312Z,24.70
2022-08-18T13:46:05.866Z,24.18
2022-08-18T13:48:34.117Z,23.80
2022-08-18T13:51:04.385Z,23.65
2022-08-18T13:53:37.463Z,23.19
2022-08-18T13:56:19.346Z,23.17
2022-08-18T13:58:47.268Z,23.25
2022-08-18T14:04:15.106Z,23.61
2022-08-18T14:06:56.550Z,23.59
2022-08-18T14:09:27.904Z,23.43
2022-08-18T14:12:15.688Z,23.15
2022-08-18T14:14:53.541Z,22.69
2022-08-18T14:17:24.235Z,22.33
2022-08-18T14:20:14.965Z,22.12
2022-08-18T14:23:02.258Z,21.82
2022-08-18T14:25:49.914Z,21.66
2022-08-18T14:28:19.661Z,21.28
2022-08-18T14:30:55.930Z,21.22
2022-08-18T14:33:49.879Z,21.13
2022-08-18T14:36:16.670Z,20.95
2022-08-18T14:38:51.523Z,21.12
2022-08-18T14:41:20.985Z,20.95
2022-08-18T14:44:13.553Z,21.26
2022-08-18T14:46:54.220Z,21.03
2022-08-18T14:49:28.258Z,20.80
2022-08-18T14:52:00.708Z,20.73
2022-08-18T14:54:30.104Z,20.61
2022-08-18T14:57:01.836Z,20.62
2022-08-18T14:59:34.523Z,20.30
2022-08-18T15:02:11.223Z,20.33
2022-08-18T15:04:55.943Z,20.33
2022-08-18T15:07:25.145Z,20.66
2022-08-18T15:10:15.062Z,20.29
2022-08-18T15:12:42.182Z,20.14
2022-08-18T15:15:13.089Z,19.64
2022-08-18T15:17:50.341Z,19.69
2022-08-18T15:20:29.500Z,19.62
2022-08-18T15:23:28.096Z,19.57
2022-08-18T15:25:56.889Z,19.86
2022-08-18T15:28:28.079Z,19.78
2022-08-18T15:33:51.177Z,19.51
2022-08-18T15:36:28.786Z,19.53
2022-08-18T15:38:59.338Z,19.86
2022-08-18T15:41:37.791Z,19.86
2022-08-18T15:44:14.602Z,19.58
2022-08-18T15:46:43.501Z,19.39
2022-08-18T15:49:19.822Z,19.60
2022-08-18T15:51:52.503Z,19.41
2022-08-18T15:54:21.004Z,19.78
2022-08-18T15:56:57.671Z,19.54
2022-08-18T15:59:33.202Z,19.71
2022-08-18T16:02:07.194Z,19.59
2022-08-18T16:04:41.512Z,19.63
2022-08-18T16:07:11.435Z,19.80
2022-08-18T16:09:39.250Z,19.82
2022-08-18T16:12:09.303Z,20.03
2022-08-18T16:14:39.098Z,20.16
2022-08-18T16:17:13.080Z,19.84
2022-08-18T16:19:46.406Z,19.86
2022-08-18T16:22:17.090Z,19.74
2022-08-18T16:24:45.218Z,19.88
2022-08-18T16:27:20.914Z,20.39
2022-08-18T16:29:49.222Z,20.56
2022-08-18T16:32:16.971Z,20.49
2022-08-18T16:34:45.955Z,20.17
2022-08-18T16:37:13.676Z,20.41
2022-08-18T16:39:41.412Z,20.43
2022-08-18T16:42:11.043Z,20.56
2022-08-18T16:44:38.844Z,20.80
2022-08-18T16:47:07.364Z,20.65
2022-08-18T16:49:35.466Z,20.55
2022-08-18T16:52:03.514Z,20.91
2022-08-18T16:54:33.482Z,21.08
2022-08-18T16:57:01.551Z,21.09
2022-08-18T16:59:48.158Z,21.33
2022-08-18T17:02:34.780Z,21.65
2022-08-18T17:05:03.154Z,21.85
2022-08-18T17:07:35.866Z,22.22
2022-08-18T17:10:06.045Z,22.38
2022-08-18T17:12:34.227Z,22.68
2022-08-18T17:15:02.736Z,23.24
2022-08-18T17:17:34.008Z,23.44
2022-08-18T17:20:01.821Z,23.84
2022-08-18T17:22:34.967Z,24.17
2022-08-18T17:25:03.899Z,24.48
2022-08-18T17:27:37.262Z,24.81
2022-08-18T17:30:18.440Z,24.98
2022-08-18T17:33:02.116Z,25.03
2022-08-18T17:35:43.243Z,25.52
2022-08-18T17:38:27.920Z,25.93
2022-08-18T17:40:58.182Z,26.40
2022-08-18T17:43:32.859Z,26.72
2022-08-18T17:46:14.058Z,27.11
2022-08-18T17:48:47.496Z,27.48
2022-08-18T17:51:34.531Z,27.97
2022-08-18T17:54:27.525Z,28.24
2022-08-18T17:57:02.121Z,28.95
2022-08-18T17:59:52.913Z,29.29
2022-08-18T18:02:29.371Z,29.78
2022-08-18T18:05:05.455Z,30.18
2022-08-18T18:07:39.354Z,30.55
2022-08-18T18:10:14.725Z,31.21
2022-08-18T18:12:42.807Z,31.64
2022-08-18T18:15:13.157Z,32.09
2022-08-18T18:17:43.312Z,32.72
2022-08-18T18:20:39.511Z,33.22
2022-08-18T18:23:19.839Z,33.75
2022-08-18T18:25:50.258Z,34.07
2022-08-18T18:28:30.643Z,34.52
2022-08-18T18:31:16.216Z,34.90
2022-08-18T18:33:45.975Z,35.33
2022-08-18T18:36:31.995Z,35.69
2022-08-18T18:39:15.873Z,36.03
2022-08-18T18:41:43.880Z,36.68
2022-08-18T18:44:14.031Z,36.96
2022-08-18T18:47:15.586Z,37.32
2022-08-18T18:49:55.553Z,37.56
2022-08-18T18:52:41.383Z,38.10
2022-08-18T18:55:15.104Z,38.56
2022-08-18T18:58:14.411Z,38.88
2022-08-18T19:00:53.967Z,39.24
2022-08-18T19:03:33.512Z,39.49
2022-08-18T19:06:32.084Z,39.91
2022-08-18T19:09:20.358Z,40.20
2022-08-18T19:11:57.919Z,40.47
2022-08-18T19:14:34.517Z,40.59
2022-08-18T19:17:13.645Z,41.15
2022-08-18T19:19:52.753Z,41.36
2022-08-18T19:22:25.598Z,41.36
2022-08-18T19:25:26.155Z,41.69
2022-08-18T19:28:07.145Z,42.13
2022-08-18T19:30:38.654Z,42.34
2022-08-18T19:33:07.358Z,42.54
2022-08-18T19:35:43.574Z,42.69
2022-08-18T19:38:47.423Z,42.81
2022-08-18T19:41:44.103Z,43.20
2022-08-18T19:44:29.312Z,43.35
2022-08-18T19:47:26.899Z,43.49
2022-08-18T19:50:11.083Z,43.93
2022-08-18T19:52:47.160Z,44.27
2022-08-18T19:55:36.566Z,44.23
2022-08-18T19:58:29.897Z,44.59
2022-08-18T20:00:57.803Z,44.81
2022-08-18T20:03:44.060Z,44.97
2022-08-18T20:06:34.432Z,45.11
2022-08-18T20:09:30.971Z,45.35
2022-08-18T20:12:04.834Z,45.78
2022-08-18T20:14:36.723Z,45.88
2022-08-18T20:17:12.849Z,45.84
2022-08-18T20:19:53.087Z,46.28
2022-08-18T20:22:24.811Z,46.44
2022-08-18T20:24:59.801Z,46.85
2022-08-18T20:27:37.194Z,47.05
2022-08-18T20:30:12.975Z,47.13
2022-08-18T20:32:41.178Z,47.31
2022-08-18T20:35:25.674Z,47.48
2022-08-18T20:38:13.232Z,47.66
2022-08-18T20:40:51.261Z,47.69
2022-08-18T20:43:46.775Z,47.94
2022-08-18T20:46:43.514Z,48.25
2022-08-18T20:49:35.430Z,48.57
2022-08-18T20:52:14.341Z,48.64
2022-08-18T20:54:57.464Z,48.80
2022-08-18T20:57:32.844Z,49.08
2022-08-18T21:00:26.694Z,49.11
2022-08-18T21:02:58.686Z,49.22
